Time;durP1;ratioP1;P1;durP2;ratioP2;P2;SDS_P1;SDS_P2;PMS_P1;PMS_P2;Temp;Humidity;BMP_temperature;BMP_pressure;BME280_temperature;BME280_humidity;BME280_pressure;Samples;Min_cycle;Max_cycle;Signal;HPM_P1;HPM_P2
2021/10/12 00:01:32;;;;;;;29.80;17.65;;;;;;;4.63;100.00;98225.41;5056105;28;20020;-79
2021/10/12 00:03:58;;;;;;;31.90;18.23;;;;;;;4.74;100.00;98230.69;5056184;28;20068;-78
2021/10/12 00:06:23;;;;;;;35.33;18.20;;;;;;;4.83;100.00;98231.06;5055233;28;20025;-78
2021/10/12 00:08:49;;;;;;;31.02;18.30;;;;;;;4.91;100.00;98236.06;5055386;28;20072;-79
2021/10/12 00:11:14;;;;;;;38.55;18.50;;;;;;;4.94;100.00;98235.56;5049921;28;20103;-78
2021/10/12 00:13:40;;;;;;;29.58;18.38;;;;;;;4.83;100.00;98231.91;5046015;28;20025;-78
2021/10/12 00:16:05;;;;;;;29.55;18.35;;;;;;;4.74;100.00;98221.75;5047813;28;20530;-77
2021/10/12 00:18:31;;;;;;;29.60;18.77;;;;;;;4.70;100.00;98224.13;5056476;28;20071;-78
2021/10/12 00:20:56;;;;;;;32.22;17.75;;;;;;;4.72;100.00;98226.63;5050311;28;20024;-78
2021/10/12 00:23:21;;;;;;;40.17;24.27;;;;;;;4.70;100.00;98223.31;5044844;28;20032;-79
2021/10/12 00:25:47;;;;;;;49.20;23.27;;;;;;;4.57;100.00;98223.69;5039983;28;20056;-80
2021/10/12 00:28:12;;;;;;;37.10;21.88;;;;;;;4.58;100.00;98220.72;5036453;28;20025;-78
2021/10/12 00:30:38;;;;;;;33.85;20.95;;;;;;;4.58;100.00;98209.06;5036271;28;20070;-79
2021/10/12 00:33:04;;;;;;;35.40;20.90;;;;;;;4.54;100.00;98213.38;5035981;28;20386;-79
2021/10/12 00:35:30;;;;;;;38.22;23.10;;;;;;;4.55;100.00;98210.41;5036038;28;20060;-78
2021/10/12 00:37:55;;;;;;;38.78;22.25;;;;;;;4.61;100.00;98209.41;5036127;28;20072;-78
2021/10/12 00:40:22;;;;;;;35.13;21.30;;;;;;;4.68;100.00;98220.88;5036437;28;20025;-78
2021/10/12 00:42:47;;;;;;;38.17;23.40;;;;;;;4.56;100.00;98209.34;5035293;28;20036;-76
2021/10/12 00:45:13;;;;;;;41.63;22.27;;;;;;;4.52;100.00;98218.19;5036368;28;20025;-78
2021/10/12 00:47:53;;;;;;;40.95;22.98;;;;;;;4.33;100.00;98204.13;5033980;28;20029;-78
2021/10/12 00:50:19;;;;;;;38.67;23.98;;;;;;;4.15;100.00;98183.56;5033539;28;20052;-79
2021/10/12 00:52:44;;;;;;;45.15;25.55;;;;;;;4.17;100.00;98203.09;5033414;28;20026;-78
2021/10/12 00:55:09;;;;;;;49.05;26.15;;;;;;;4.22;100.00;98194.22;5034537;28;20486;-77
2021/10/12 00:57:35;;;;;;;40.38;21.83;;;;;;;4.43;100.00;98195.34;5044068;28;20024;-78
2021/10/12 01:00:00;;;;;;;35.58;21.58;;;;;;;4.56;100.00;98189.56;5045486;28;20029;-78
2021/10/12 01:02:29;;;;;;;35.17;21.92;;;;;;;4.54;100.00;98181.66;5054655;28;20017;-79
2021/10/12 01:04:54;;;;;;;33.90;21.23;;;;;;;4.55;100.00;98177.91;5053657;28;20079;-78
2021/10/12 01:07:20;;;;;;;38.97;22.42;;;;;;;4.51;100.00;98173.25;5053933;28;20029;-77
2021/10/12 01:09:45;;;;;;;38.83;23.40;;;;;;;4.68;100.00;98184.84;5053409;28;20079;-77
2021/10/12 01:12:11;;;;;;;32.72;20.70;;;;;;;4.83;100.00;98185.84;5053489;28;20112;-79
2021/10/12 01:14:36;;;;;;;39.17;20.40;;;;;;;4.90;100.00;98184.81;5054616;28;20112;-79
2021/10/12 01:17:02;;;;;;;39.17;20.77;;;;;;;4.85;100.00;98183.69;5054427;28;20025;-79
2021/10/12 01:19:27;;;;;;;37.53;22.98;;;;;;;4.93;100.00;98187.84;5054508;28;20025;-79
2021/10/12 01:21:53;;;;;;;36.25;21.35;;;;;;;4.98;100.00;98185.19;5054204;28;20082;-77
2021/10/12 01:24:18;;;;;;;38.83;23.23;;;;;;;5.09;100.00;98181.53;5054513;28;20033;-78
2021/10/12 01:26:45;;;;;;;44.00;22.48;;;;;;;5.08;100.00;98182.59;5054981;28;20028;-79
2021/10/12 01:29:13;;;;;;;36.03;21.50;;;;;;;5.08;100.00;98182.59;5054974;28;20048;-77
2021/10/12 01:31:38;;;;;;;24.58;15.77;;;;;;;4.91;100.00;98194.59;5046464;28;20407;-77
2021/10/12 01:34:15;;;;;;;25.60;14.32;;;;;;;4.92;100.00;98191.63;5041075;28;20020;-79
2021/10/12 01:36:42;;;;;;;22.48;13.52;;;;;;;4.85;100.00;98194.53;5035240;28;20025;-78
2021/10/12 01:39:08;;;;;;;26.08;14.15;;;;;;;4.70;100.00;98179.97;5031872;28;20026;-79
2021/10/12 01:41:34;;;;;;;24.50;14.73;;;;;;;4.72;100.00;98188.69;5031799;28;20035;-79
2021/10/12 01:43:59;;;;;;;21.27;14.38;;;;;;;4.66;100.00;98187.81;5031770;28;20045;-77
2021/10/12 01:46:24;;;;;;;27.02;15.05;;;;;;;4.59;100.00;98183.63;5032080;28;20395;-78
2021/10/12 01:48:50;;;;;;;24.40;14.60;;;;;;;4.69;100.00;98192.72;5032122;28;20116;-80
2021/10/12 01:51:15;;;;;;;27.85;16.25;;;;;;;4.64;100.00;98187.22;5031613;28;20099;-79
2021/10/12 01:53:41;;;;;;;33.28;16.10;;;;;;;4.69;100.00;98172.94;5030975;28;20083;-79
2021/10/12 01:56:07;;;;;;;26.85;16.27;;;;;;;4.71;100.00;98174.31;5030279;28;20087;-80
2021/10/12 01:58:32;;;;;;;29.88;17.58;;;;;;;4.76;100.00;98174.38;5031371;28;20065;-80
2021/10/12 02:00:58;;;;;;;30.45;17.60;;;;;;;4.86;100.00;98189.94;5032161;28;20036;-78
2021/10/12 02:03:24;;;;;;;36.20;19.33;;;;;;;4.88;100.00;98187.81;5031820;28;20413;-78
2021/10/12 02:05:49;;;;;;;41.40;20.50;;;;;;;4.92;100.00;98186.19;5034091;28;20036;-78
2021/10/12 02:08:15;;;;;;;36.85;20.63;;;;;;;4.92;100.00;98180.78;5037558;28;20036;-79
2021/10/12 02:10:40;;;;;;;42.20;23.38;;;;;;;4.90;100.00;98171.28;5042385;28;20024;-77
2021/10/12 02:13:06;;;;;;;96.90;24.25;;;;;;;4.83;100.00;98160.63;5051324;28;20096;-78
2021/10/12 02:15:31;;;;;;;139.95;25.00;;;;;;;4.82;100.00;98169.84;5050873;28;20063;-77
2021/10/12 02:17:57;;;;;;;195.07;29.48;;;;;;;4.87;100.00;98178.03;5051926;28;20032;-78
2021/10/12 02:20:22;;;;;;;84.88;25.58;;;;;;;4.92;100.00;98182.69;5051842;28;20115;-77
2021/10/12 02:22:47;;;;;;;117.25;32.63;;;;;;;4.92;100.00;98180.78;5051742;28;20483;-79
2021/10/12 02:25:13;;;;;;;80.90;26.42;;;;;;;4.89;100.00;98188.63;5052610;28;20470;-77
2021/10/12 02:27:39;;;;;;;116.00;27.23;;;;;;;4.82;100.00;98180.69;5051776;28;20501;-76
2021/10/12 02:30:06;;;;;;;82.93;26.08;;;;;;;4.79;100.00;98167.66;5051068;28;20063;-78
2021/10/12 02:32:32;;;;;;;82.53;25.88;;;;;;;4.86;100.00;98179.91;5051546;28;20032;-79
2021/10/12 02:34:57;;;;;;;82.75;24.40;;;;;;;4.92;100.00;98188.91;5051626;28;20120;-78
2021/10/12 02:37:22;;;;;;;56.35;24.15;;;;;;;4.89;100.00;98177.78;5051545;28;20540;-77
2021/10/12 02:39:48;;;;;;;126.25;26.30;;;;;;;4.82;100.00;98169.84;5051224;28;20461;-78
2021/10/12 02:42:14;;;;;;;135.82;24.73;;;;;;;4.96;100.00;98179.22;5051300;28;20033;-78
2021/10/12 02:44:39;;;;;;;100.78;26.17;;;;;;;4.94;100.00;98175.94;5038052;28;20029;-78
2021/10/12 02:47:04;;;;;;;71.90;22.75;;;;;;;4.97;100.00;98174.63;5039345;28;20108;-78
2021/10/12 02:49:30;;;;;;;50.40;22.75;;;;;;;4.90;100.00;98174.81;5035025;28;20038;-79
2021/10/12 02:51:55;;;;;;;66.00;23.17;;;;;;;4.93;100.00;98176.19;5030442;28;20038;-77
2021/10/12 02:54:21;;;;;;;81.93;22.08;;;;;;;4.95;100.00;98172.16;5030840;28;20029;-78
2021/10/12 02:56:46;;;;;;;45.65;21.02;;;;;;;4.93;100.00;98160.75;5030797;28;20025;-77
2021/10/12 02:59:12;;;;;;;134.43;24.48;;;;;;;4.83;100.00;98179.59;5031729;28;20021;-79
2021/10/12 03:01:37;;;;;;;56.78;22.58;;;;;;;4.78;100.00;98182.25;5031785;28;20025;-80
2021/10/12 03:04:03;;;;;;;50.97;19.50;;;;;;;4.87;100.00;98186.16;5030433;28;20375;-79
2021/10/12 03:06:28;;;;;;;80.75;18.90;;;;;;;4.81;100.00;98181.75;5032201;28;20017;-78
2021/10/12 03:08:54;;;;;;;63.38;19.90;;;;;;;4.84;100.00;98175.81;5032214;28;20021;-78
2021/10/12 03:11:19;;;;;;;80.50;24.48;;;;;;;5.04;100.00;98170.66;5031607;28;20029;-78
2021/10/12 03:13:45;;;;;;;159.95;22.80;;;;;;;4.92;100.00;98172.66;5033156;28;20076;-79
2021/10/12 03:16:10;;;;;;;108.80;22.73;;;;;;;4.82;100.00;98180.69;5036142;28;20021;-78
2021/10/12 03:18:37;;;;;;;138.73;24.63;;;;;;;4.79;100.00;98176.56;5032280;28;20502;-79
2021/10/12 03:21:03;;;;;;;86.07;22.55;;;;;;;4.80;100.00;98170.09;5040563;28;20033;-78
2021/10/12 03:23:29;;;;;;;82.70;21.88;;;;;;;4.70;100.00;98169.13;5039607;28;20028;-76
2021/10/12 03:25:55;;;;;;;75.85;22.50;;;;;;;4.78;100.00;98187.69;5050888;28;20028;-78
2021/10/12 03:28:20;;;;;;;109.72;24.48;;;;;;;4.83;100.00;98190.44;5051161;28;20032;-77
2021/10/12 03:30:46;;;;;;;114.20;25.48;;;;;;;4.74;100.00;98167.56;5051377;28;20564;-79
2021/10/12 03:33:14;;;;;;;148.75;26.73;;;;;;;4.73;100.00;98174.88;5039017;28;20031;-79
2021/10/12 03:35:45;;;;;;;113.07;25.25;;;;;;;4.84;100.00;98175.81;5040973;28;20021;-78
2021/10/12 03:38:10;;;;;;;82.47;24.15;;;;;;;4.82;100.00;98172.56;5049406;28;20033;-78
2021/10/12 03:40:36;;;;;;;124.28;24.98;;;;;;;4.81;100.00;98173.63;5044512;28;20599;-78
2021/10/12 03:43:01;;;;;;;59.60;21.48;;;;;;;4.67;100.00;98175.06;5022165;28;20654;-80
2021/10/12 03:45:27;;;;;;;90.95;21.95;;;;;;;4.72;100.00;98164.31;5012200;28;20098;-78
2021/10/12 03:47:52;;;;;;;81.82;24.33;;;;;;;4.72;100.00;98178.66;5013535;28;20372;-78
2021/10/12 03:50:18;;;;;;;50.17;22.13;;;;;;;4.86;100.00;98173.66;5011154;28;20034;-78
2021/10/12 03:52:43;;;;;;;74.35;22.30;;;;;;;4.84;100.00;98176.66;5011464;28;20091;-80
2021/10/12 03:55:09;;;;;;;63.63;23.75;;;;;;;4.76;100.00;98168.16;5019803;28;20068;-77
2021/10/12 03:57:34;;;;;;;165.48;25.88;;;;;;;4.75;100.00;98178.16;5041557;28;20143;-77
2021/10/12 04:00:00;;;;;;;153.13;23.20;;;;;;;4.71;100.00;98171.59;5036986;28;20525;-77
2021/10/12 04:02:25;;;;;;;119.20;26.27;;;;;;;4.71;100.00;98177.03;5032182;28;20021;-78
2021/10/12 04:04:50;;;;;;;91.55;25.65;;;;;;;4.82;100.00;98167.94;5031898;28;20030;-80
2021/10/12 04:07:16;;;;;;;73.90;24.70;;;;;;;4.87;100.00;98169.91;5029743;28;20044;-79
2021/10/12 04:09:41;;;;;;;67.90;24.17;;;;;;;4.98;100.00;98171.63;5030128;28;20031;-80
2021/10/12 04:12:07;;;;;;;52.92;24.60;;;;;;;5.00;100.00;98169.50;5030349;28;20026;-77
2021/10/12 04:14:32;;;;;;;71.38;23.70;;;;;;;5.02;100.00;98167.34;5029778;28;20029;-78
2021/10/12 04:16:58;;;;;;;58.60;23.58;;;;;;;5.04;100.00;98165.22;5031199;28;20052;-79
2021/10/12 04:19:23;;;;;;;104.03;25.50;;;;;;;5.05;100.00;98157.88;5033164;28;20026;-78
2021/10/12 04:21:49;;;;;;;44.15;21.90;;;;;;;5.12;100.00;98161.22;5033709;28;20778;-79
2021/10/12 04:24:14;;;;;;;57.70;22.30;;;;;;;5.10;100.00;98164.22;5037242;28;20022;-80
2021/10/12 04:26:40;;;;;;;43.95;21.08;;;;;;;5.10;100.00;98158.78;5038933;28;20348;-82
2021/10/12 04:29:07;;;;;;;42.40;22.90;;;;;;;5.06;100.00;98156.81;5039587;28;20028;-81
2021/10/12 04:31:33;;;;;;;45.90;22.38;;;;;;;5.08;100.00;98157.38;5043500;28;20557;-83
2021/10/12 04:33:58;;;;;;;77.90;22.10;;;;;;;5.09;100.00;98157.13;5042718;28;20038;-78
2021/10/12 04:36:24;;;;;;;61.17;23.70;;;;;;;4.98;100.00;98139.13;5052851;28;20470;-79
2021/10/12 04:38:49;;;;;;;134.48;23.45;;;;;;;5.00;100.00;98145.13;5054829;28;20462;-79
2021/10/12 04:41:14;;;;;;;97.13;21.73;;;;;;;4.92;100.00;98150.97;5055200;28;20037;-80
2021/10/12 04:43:41;;;;;;;102.38;25.10;;;;;;;4.79;100.00;98141.34;5055195;28;20057;-78
2021/10/12 04:46:06;;;;;;;114.35;25.33;;;;;;;4.75;100.00;98144.84;5055853;28;20090;-79
2021/10/12 04:48:32;;;;;;;186.63;27.88;;;;;;;4.62;100.00;98142.50;5043578;28;20096;-80
2021/10/12 04:50:57;;;;;;;135.95;28.40;;;;;;;4.53;100.00;98125.06;5047550;28;20032;-79
2021/10/12 04:53:23;;;;;;;60.83;26.08;;;;;;;4.83;100.00;98138.94;5043869;28;20387;-80
2021/10/12 04:55:48;;;;;;;72.63;27.17;;;;;;;4.88;100.00;98144.44;5041199;28;20025;-78
2021/10/12 04:58:14;;;;;;;64.88;24.67;;;;;;;4.99;100.00;98151.59;5042793;28;20505;-78
2021/10/12 05:00:39;;;;;;;87.80;24.30;;;;;;;4.94;100.00;98154.28;5042232;28;20523;-79
2021/10/12 05:03:05;;;;;;;91.28;24.75;;;;;;;4.97;100.00;98153.75;5035001;28;20116;-85
2021/10/12 05:05:31;;;;;;;58.70;23.52;;;;;;;5.04;100.00;98159.81;5034347;28;20387;-82
2021/10/12 05:07:56;;;;;;;58.65;25.35;;;;;;;5.03;100.00;98160.03;5044436;28;20029;-78
2021/10/12 05:10:22;;;;;;;90.85;23.50;;;;;;;5.13;100.00;98157.44;5045404;28;20040;-78
2021/10/12 05:12:47;;;;;;;153.95;25.23;;;;;;;5.03;100.00;98163.59;5048845;28;20036;-78
2021/10/12 05:15:19;;;;;;;69.93;22.95;;;;;;;5.10;100.00;98163.38;5052875;28;20050;-81
2021/10/12 05:17:47;;;;;;;41.65;21.80;;;;;;;5.15;100.00;98164.25;5038245;28;20037;-78
2021/10/12 05:20:13;;;;;;;61.17;21.20;;;;;;;5.13;100.00;98160.97;5038446;28;20095;-77
2021/10/12 05:22:38;;;;;;;100.22;24.23;;;;;;;5.00;100.00;98158.66;5045832;28;20501;-78
2021/10/12 05:25:05;;;;;;;105.30;21.35;;;;;;;4.86;100.00;98160.94;5045961;28;20132;-79
2021/10/12 05:27:32;;;;;;;71.35;21.48;;;;;;;4.96;100.00;98162.13;5044277;28;20109;-81
2021/10/12 05:29:58;;;;;;;99.97;22.48;;;;;;;5.07;100.00;98164.72;5053522;28;20021;-78
2021/10/12 05:32:23;;;;;;;49.55;21.17;;;;;;;4.99;100.00;98157.03;5053414;28;20090;-80
2021/10/12 05:34:49;;;;;;;69.90;24.17;;;;;;;5.01;100.00;98164.91;5045357;28;20120;-82
2021/10/12 05:37:14;;;;;;;66.00;24.77;;;;;;;4.90;100.00;98142.28;5039567;28;20030;-78
2021/10/12 05:39:40;;;;;;;82.57;22.48;;;;;;;4.85;100.00;98134.91;5043869;28;20024;-79
2021/10/12 05:42:05;;;;;;;60.72;20.95;;;;;;;4.96;100.00;98145.88;5043066;28;20024;-79
2021/10/12 05:44:30;;;;;;;48.13;21.70;;;;;;;5.09;100.00;98149.00;5038048;28;20075;-78
2021/10/12 05:46:56;;;;;;;45.95;21.45;;;;;;;5.16;100.00;98160.47;5040225;28;20049;-79
2021/10/12 05:49:21;;;;;;;80.47;19.45;;;;;;;5.12;100.00;98156.63;5040066;28;20031;-77
2021/10/12 05:51:48;;;;;;;44.47;18.98;;;;;;;5.19;100.00;98159.13;5042347;28;20173;-77
2021/10/12 05:54:19;;;;;;;52.65;18.80;;;;;;;5.21;100.00;98155.09;5041194;28;20032;-79
2021/10/12 05:56:55;;;;;;;42.08;20.63;;;;;;;5.22;100.00;98164.03;5049821;28;20024;-81
2021/10/12 05:59:21;;;;;;;42.72;18.08;;;;;;;5.19;100.00;98159.97;5042411;28;20036;-79
2021/10/12 06:01:47;;;;;;;31.90;18.30;;;;;;;5.26;100.00;98157.03;5039694;28;20030;-77
2021/10/12 06:04:12;;;;;;;40.88;19.55;;;;;;;5.25;100.00;98152.69;5041584;28;20033;-79
2021/10/12 06:06:37;;;;;;;32.45;17.90;;;;;;;5.39;100.00;98156.59;5040380;28;20426;-77
2021/10/12 06:09:03;;;;;;;28.42;16.98;;;;;;;5.35;100.00;98148.19;5039977;28;20019;-77
2021/10/12 06:11:29;;;;;;;53.92;17.52;;;;;;;5.36;100.00;98140.84;5041796;28;20025;-78
2021/10/12 06:13:56;;;;;;;27.30;16.08;;;;;;;5.52;100.00;98155.38;5041261;28;20047;-77
2021/10/12 06:16:21;;;;;;;32.85;19.02;;;;;;;5.54;100.00;98159.47;5040839;28;20039;-76
2021/10/12 06:18:47;;;;;;;45.38;18.05;;;;;;;5.55;100.00;98161.09;5039808;28;20010;-76
2021/10/12 06:21:12;;;;;;;30.15;17.02;;;;;;;5.61;100.00;98137.53;5040277;28;20033;-79
2021/10/12 06:23:39;;;;;;;33.72;17.05;;;;;;;5.73;100.00;98146.34;5040484;28;20033;-80
2021/10/12 06:26:05;;;;;;;29.70;18.38;;;;;;;5.77;100.00;98142.84;5038617;28;20037;-78
2021/10/12 06:28:30;;;;;;;33.85;16.77;;;;;;;5.87;100.00;98142.13;5042207;28;20025;-77
2021/10/12 06:30:56;;;;;;;28.85;16.85;;;;;;;5.84;100.00;98151.59;5040128;28;21002;-78
2021/10/12 06:33:21;;;;;;;39.42;17.10;;;;;;;5.78;100.00;98170.78;5040200;28;20033;-79
2021/10/12 06:35:47;;;;;;;32.22;17.92;;;;;;;5.81;100.00;98165.69;5042433;28;20036;-78
2021/10/12 06:38:12;;;;;;;31.25;17.17;;;;;;;5.85;100.00;98152.41;5045185;28;20026;-78
2021/10/12 06:40:39;;;;;;;29.92;17.88;;;;;;;6.04;100.00;98164.53;5034052;28;20036;-80
2021/10/12 06:43:04;;;;;;;25.55;16.08;;;;;;;6.02;100.00;98166.66;5032251;28;20033;-78
2021/10/12 06:45:29;;;;;;;28.17;16.88;;;;;;;6.16;100.00;98175.19;5030655;28;20095;-78
2021/10/12 06:47:55;;;;;;;26.85;16.30;;;;;;;6.15;100.00;98173.53;5031362;28;20429;-80
2021/10/12 06:50:22;;;;;;;30.63;15.25;;;;;;;6.09;100.00;98163.72;5031759;28;20040;-80
2021/10/12 06:52:48;;;;;;;28.33;15.90;;;;;;;6.16;100.00;98162.44;5031648;28;20401;-80
2021/10/12 06:55:15;;;;;;;26.52;16.30;;;;;;;6.17;100.00;98174.91;5034472;28;20029;-78
2021/10/12 06:57:41;;;;;;;32.05;15.70;;;;;;;6.11;100.00;98177.88;5042186;28;20025;-82
2021/10/12 07:00:11;;;;;;;28.98;16.33;;;;;;;6.16;100.00;98173.28;5039435;28;20032;-79
2021/10/12 07:02:37;;;;;;;24.90;15.10;;;;;;;6.06;100.00;98156.94;5030800;28;20494;-79
2021/10/12 07:05:03;;;;;;;28.85;16.45;;;;;;;6.13;100.00;98165.66;5030917;28;20036;-78
2021/10/12 07:07:28;;;;;;;25.55;15.40;;;;;;;6.25;100.00;98154.59;5030491;28;20826;-77
2021/10/12 07:09:54;;;;;;;30.10;15.90;;;;;;;6.23;100.00;98160.31;5030885;28;20033;-79
2021/10/12 07:12:19;;;;;;;29.45;15.57;;;;;;;6.26;100.00;98153.53;5030178;28;20034;-79
2021/10/12 07:14:45;;;;;;;30.77;16.70;;;;;;;6.20;100.00;98154.59;5030404;28;20478;-79
2021/10/12 07:17:10;;;;;;;28.45;16.23;;;;;;;6.20;100.00;98152.66;5030499;28;20033;-80
2021/10/12 07:19:35;;;;;;;26.13;15.68;;;;;;;6.20;100.00;98162.72;5031094;28;20037;-79
2021/10/12 07:22:01;;;;;;;30.90;16.95;;;;;;;6.18;100.00;98165.69;5030482;28;20072;-78
2021/10/12 07:24:26;;;;;;;30.77;17.30;;;;;;;6.23;100.00;98164.91;5030500;28;20033;-78
2021/10/12 07:26:53;;;;;;;28.83;17.90;;;;;;;6.33;100.00;98173.09;5030523;28;20038;-79
2021/10/12 07:29:19;;;;;;;33.67;18.27;;;;;;;6.40;100.00;98185.38;5030169;28;20030;-79
2021/10/12 07:31:44;;;;;;;30.58;17.05;;;;;;;6.43;100.00;98184.88;5035738;28;20036;-79
2021/10/12 07:34:10;;;;;;;31.77;17.23;;;;;;;6.52;100.00;98179.75;5038065;28;20040;-79
2021/10/12 07:36:36;;;;;;;29.15;17.02;;;;;;;6.64;100.00;98183.06;5044477;28;20036;-79
2021/10/12 07:39:02;;;;;;;31.38;18.05;;;;;;;6.76;100.00;98170.09;5049834;28;20424;-80
2021/10/12 07:41:28;;;;;;;34.30;17.95;;;;;;;6.89;100.00;98166.06;5050223;28;20035;-79
2021/10/12 07:43:54;;;;;;;30.70;17.05;;;;;;;7.07;100.00;98168.31;5049860;28;20418;-78
2021/10/12 07:46:19;;;;;;;26.20;15.70;;;;;;;7.20;100.00;98165.09;5050116;28;20036;-80
2021/10/12 07:48:44;;;;;;;25.50;14.82;;;;;;;7.16;100.00;98163.97;5050547;28;20043;-79
2021/10/12 07:51:10;;;;;;;27.90;14.88;;;;;;;7.34;100.00;98168.09;5050873;28;20021;-79
2021/10/12 07:53:37;;;;;;;24.83;14.30;;;;;;;7.45;100.00;98165.13;5046613;28;20082;-77
2021/10/12 07:56:07;;;;;;;25.70;15.27;;;;;;;7.37;100.00;98162.94;5062029;28;20021;-78
2021/10/12 07:58:33;;;;;;;27.13;15.18;;;;;;;7.39;100.00;98155.28;5033983;28;20026;-79
2021/10/12 08:00:58;;;;;;;25.35;14.35;;;;;;;7.30;100.00;98159.63;5034441;28;20029;-81
2021/10/12 08:03:24;;;;;;;24.88;15.73;;;;;;;7.47;100.00;98154.78;5034131;28;20351;-78
2021/10/12 08:05:49;;;;;;;26.77;15.45;;;;;;;7.58;100.00;98157.53;5065259;28;20021;-79
2021/10/12 08:08:15;;;;;;;23.73;14.45;;;;;;;7.67;100.00;98155.91;5041577;28;20512;-80
2021/10/12 08:10:40;;;;;;;24.25;14.77;;;;;;;7.60;100.00;98155.34;5042445;28;20022;-77
2021/10/12 08:13:10;;;;;;;25.58;15.80;;;;;;;7.58;100.00;98163.75;5037197;28;20116;-80
2021/10/12 08:15:37;;;;;;;27.45;15.75;;;;;;;7.63;100.00;98161.06;5044011;28;20493;-78
2021/10/12 08:18:03;;;;;;;29.17;17.25;;;;;;;7.39;100.00;98152.56;5039368;28;20446;-79
2021/10/12 08:20:28;;;;;;;29.30;15.65;;;;;;;7.61;100.00;98146.09;5035331;28;20061;-78
2021/10/12 08:22:54;;;;;;;26.77;15.15;;;;;;;7.76;100.00;98137.94;5033272;28;20498;-77
2021/10/12 08:25:20;;;;;;;29.05;14.32;;;;;;;7.99;100.00;98140.88;5031668;28;20040;-77
2021/10/12 08:27:45;;;;;;;27.30;15.68;;;;;;;8.02;100.00;98142.25;5033187;28;20025;-78
2021/10/12 08:30:12;;;;;;;21.55;13.35;;;;;;;8.25;100.00;98141.69;5033279;28;20021;-77
2021/10/12 08:32:39;;;;;;;24.60;14.02;;;;;;;8.29;100.00;98141.97;5033122;28;20064;-78
2021/10/12 08:35:08;;;;;;;27.55;16.15;;;;;;;8.14;100.00;98142.78;5033061;28;20037;-78
2021/10/12 08:37:34;;;;;;;24.58;14.70;;;;;;;8.22;100.00;98142.22;5033117;28;20026;-79
2021/10/12 08:40:00;;;;;;;26.92;15.00;;;;;;;8.43;99.85;98148.47;5032950;28;20048;-78
2021/10/12 08:42:29;;;;;;;24.70;13.48;;;;;;;8.49;97.96;98139.19;5032857;28;20482;-80
2021/10/12 08:44:59;;;;;;;23.10;14.00;;;;;;;8.44;99.17;98129.13;5038765;28;20063;-78
2021/10/12 08:47:26;;;;;;;21.63;12.65;;;;;;;8.26;99.20;98124.25;5042037;28;20482;-81
2021/10/12 08:49:52;;;;;;;20.15;13.18;;;;;;;8.42;98.07;98125.06;5054725;28;20017;-78
2021/10/12 08:52:18;;;;;;;23.38;14.00;;;;;;;8.41;98.22;98128.84;5052361;28;20037;-79
2021/10/12 08:54:43;;;;;;;19.88;12.95;;;;;;;8.13;99.20;98119.38;5052585;28;20029;-79
2021/10/12 08:57:09;;;;;;;20.30;13.98;;;;;;;7.80;100.00;98117.25;5053091;28;20021;-79
2021/10/12 08:59:34;;;;;;;23.25;14.07;;;;;;;7.76;100.00;98125.13;5051569;28;20055;-80
2021/10/12 09:02:02;;;;;;;23.70;13.98;;;;;;;8.02;100.00;98123.19;5052491;28;20028;-78
2021/10/12 09:04:46;;;;;;;20.50;13.10;;;;;;;8.27;100.00;98123.13;5052937;28;20028;-78
2021/10/12 09:07:19;;;;;;;22.48;14.30;;;;;;;8.43;99.01;98130.22;5053794;28;20034;-79
2021/10/12 09:09:45;;;;;;;21.95;13.82;;;;;;;8.76;96.90;98145.09;5051924;28;20449;-79
2021/10/12 09:12:11;;;;;;;25.67;13.73;;;;;;;9.34;94.69;98135.25;5053266;28;20065;-78
2021/10/12 09:14:58;;;;;;;22.80;13.52;;;;;;;9.61;91.03;98121.16;5054469;28;20432;-80
2021/10/12 09:17:30;;;;;;;22.70;12.35;;;;;;;9.74;90.39;98120.50;5055743;28;20037;-79
2021/10/12 09:19:56;;;;;;;21.55;13.98;;;;;;;9.49;91.37;98118.75;5049638;28;20032;-83
2021/10/12 09:22:21;;;;;;;20.42;13.88;;;;;;;9.58;90.42;98121.72;5042875;28;20053;-79
2021/10/12 09:24:48;;;;;;;22.48;13.55;;;;;;;9.47;90.98;98120.13;5046263;28;20047;-78
2021/10/12 09:27:16;;;;;;;24.35;13.65;;;;;;;9.41;94.79;98127.56;5052133;28;20503;-77
2021/10/12 09:32:11;;;;;;;30.15;13.90;;;;;;;9.48;92.47;98114.41;5051915;28;20394;-78
2021/10/12 09:34:38;;;;;;;24.73;13.05;;;;;;;9.41;92.54;98113.09;5052443;28;20021;-77
2021/10/12 09:37:06;;;;;;;22.50;14.73;;;;;;;9.57;91.41;98112.69;5052110;28;20066;-78
2021/10/12 09:39:32;;;;;;;27.58;14.38;;;;;;;9.48;92.32;98111.69;5051707;28;20029;-78
2021/10/12 09:42:09;;;;;;;25.88;15.70;;;;;;;9.64;92.89;98120.56;5051575;28;20739;-77
2021/10/12 09:44:35;;;;;;;27.52;15.45;;;;;;;9.36;94.41;98118.59;5052215;28;20036;-81
2021/10/12 09:47:14;;;;;;;22.15;13.55;;;;;;;9.69;92.30;98128.72;5052312;28;20025;-78
2021/10/12 09:49:41;;;;;;;30.80;15.48;;;;;;;9.90;91.85;98138.38;5052675;28;20128;-78
2021/10/12 09:52:15;;;;;;;21.13;14.30;;;;;;;10.35;88.51;98128.97;5051260;28;20029;-78
2021/10/12 09:54:55;;;;;;;32.47;14.27;;;;;;;10.39;87.22;98132.75;5049632;28;20494;-78
2021/10/12 09:57:23;;;;;;;27.27;15.48;;;;;;;10.19;88.97;98122.00;5039072;28;20025;-78
2021/10/12 09:59:49;;;;;;;26.65;15.35;;;;;;;10.13;88.58;98121.25;5040009;28;20024;-79
2021/10/12 10:02:20;;;;;;;23.48;15.95;;;;;;;10.13;89.76;98120.41;5031454;28;20017;-77
2021/10/12 10:04:47;;;;;;;23.25;14.98;;;;;;;10.46;87.45;98119.53;5031888;28;20041;-78
2021/10/12 10:07:43;;;;;;;29.35;14.82;;;;;;;10.65;86.25;98117.66;5031962;28;20029;-78
2021/10/12 10:10:09;;;;;;;23.63;14.38;;;;;;;10.87;84.66;98121.81;5032101;28;20033;-79
2021/10/12 10:12:35;;;;;;;23.30;15.00;;;;;;;11.04;83.45;98122.13;5031592;28;20047;-78
2021/10/12 10:15:01;;;;;;;21.60;14.07;;;;;;;11.12;82.51;98111.31;5031544;28;20021;-77
2021/10/12 10:17:28;;;;;;;22.65;13.80;;;;;;;11.32;81.69;98110.22;5031371;28;20025;-79
2021/10/12 10:19:55;;;;;;;25.08;13.90;;;;;;;11.29;81.05;98110.81;5034014;28;20389;-78
2021/10/12 10:25:34;;;;;;;20.90;14.20;;;;;;;12.71;76.37;98100.97;5031729;28;20053;-78
2021/10/12 10:28:18;;;;;;;29.77;14.32;;;;;;;12.84;73.83;98100.94;5036936;28;20053;-77
2021/10/12 10:30:52;;;;;;;24.30;14.43;;;;;;;12.82;74.03;98094.16;5036367;28;20032;-79
2021/10/12 10:33:36;;;;;;;24.58;15.23;;;;;;;12.61;74.97;98099.25;5033786;28;20032;-78
2021/10/12 10:36:04;;;;;;;22.65;13.75;;;;;;;12.83;74.43;98093.84;5036148;28;20175;-77
2021/10/12 10:38:34;;;;;;;22.13;14.65;;;;;;;12.05;77.17;98079.47;5037107;28;20032;-78
2021/10/12 10:41:05;;;;;;;27.33;14.35;;;;;;;12.37;76.07;98090.41;5046309;28;20048;-77
2021/10/12 10:43:49;;;;;;;23.63;14.75;;;;;;;12.10;76.23;98079.38;5051408;28;20056;-78
2021/10/12 10:46:34;;;;;;;27.30;15.00;;;;;;;11.54;79.87;98066.59;5050780;28;20029;-77
2021/10/12 10:49:21;;;;;;;25.23;15.15;;;;;;;11.56;79.63;98064.38;5050283;28;20029;-78
2021/10/12 10:52:05;;;;;;;24.42;14.73;;;;;;;11.65;80.74;98065.31;5051066;28;20074;-80
2021/10/12 10:54:41;;;;;;;21.67;14.23;;;;;;;11.50;80.19;98060.09;5051025;28;20470;-78
2021/10/12 10:57:20;;;;;;;24.15;15.32;;;;;;;11.74;78.55;98060.00;5050933;28;20037;-78
2021/10/12 10:59:47;;;;;;;21.70;14.77;;;;;;;11.51;79.06;98042.53;5050213;28;20036;-78
2021/10/12 11:02:30;;;;;;;23.38;14.55;;;;;;;11.14;81.09;98050.81;5050239;28;20064;-78
2021/10/12 11:04:56;;;;;;;22.75;14.73;;;;;;;11.09;82.29;98037.19;5050258;28;20076;-78
2021/10/12 11:07:24;;;;;;;25.48;16.42;;;;;;;11.08;82.77;98041.03;5045657;28;20498;-78
2021/10/12 11:09:50;;;;;;;21.13;15.25;;;;;;;11.05;83.39;98038.91;5040448;28;20036;-77
2021/10/12 11:12:39;;;;;;;22.30;15.80;;;;;;;11.27;81.49;98028.97;5037964;28;20494;-78
2021/10/12 11:15:06;;;;;;;24.48;15.82;;;;;;;11.24;81.69;98034.22;5038868;28;20021;-78
2021/10/12 11:17:32;;;;;;;23.75;16.10;;;;;;;11.11;83.02;98043.19;5038582;28;20059;-75
2021/10/12 11:20:00;;;;;;;31.08;15.63;;;;;;;11.13;83.82;98033.56;5035178;28;20060;-75
2021/10/12 11:22:28;;;;;;;26.95;16.25;;;;;;;11.34;83.52;98036.78;5032775;28;20049;-78